Time;durP1;ratioP1;P1;durP2;ratioP2;P2;SDS_P1;SDS_P2;PMS_P1;PMS_P2;Temp;Humidity;BMP_temperature;BMP_pressure;BME280_temperature;BME280_humidity;BME280_pressure;Samples;Min_cycle;Max_cycle;Signal;HPM_P1;HPM_P2
2022/11/18 00:01:38;;;;;;;;;14.40;14.20;;;;;16.24;55.68;98059.47;4852951;29;8895;-79
2022/11/18 00:04:06;;;;;;;;;21.60;16.00;;;;;16.03;55.73;98053.44;4857147;29;8914;-77
2022/11/18 00:06:35;;;;;;;;;21.00;18.60;;;;;16.17;55.27;98050.16;4855733;29;8886;-78
2022/11/18 00:09:04;;;;;;;;;23.20;20.60;;;;;16.14;55.79;98039.78;4869498;29;9048;-76
2022/11/18 00:14:22;;;;;;;;;19.80;16.80;;;;;16.13;56.00;98036.31;4856112;29;8863;-80
2022/11/18 00:16:53;;;;;;;;;22.80;19.40;;;;;16.14;55.45;98035.38;4857239;29;9640;-77
2022/11/18 00:19:24;;;;;;;;;19.20;17.60;;;;;16.04;56.15;98041.16;4873214;29;8967;-77
2022/11/18 00:21:53;;;;;;;;;21.00;17.20;;;;;16.00;55.89;98040.44;4873249;29;8855;-77
2022/11/18 00:24:23;;;;;;;;;20.20;19.60;;;;;15.95;55.85;98045.91;4855799;29;8851;-77
2022/11/18 00:26:52;;;;;;;;;19.00;18.60;;;;;16.03;55.74;98034.16;4856863;29;9837;-78
2022/11/18 00:29:25;;;;;;;;;24.80;20.40;;;;;15.99;56.39;98041.34;4857332;29;8879;-80
2022/11/18 00:31:54;;;;;;;;;21.00;19.00;;;;;16.00;56.85;98042.22;4872693;29;9957;-77
2022/11/18 00:34:22;;;;;;;;;20.40;18.80;;;;;16.01;56.31;98038.66;4856916;29;8957;-78
2022/11/18 00:36:51;;;;;;;;;19.20;18.40;;;;;15.76;56.43;98039.78;4872805;29;8855;-77
2022/11/18 00:39:20;;;;;;;;;13.40;12.40;;;;;15.84;56.95;98040.31;4871950;29;8866;-76
2022/11/18 00:44:37;;;;;;;;;23.60;21.00;;;;;16.00;56.21;98029.06;4858661;29;8855;-78
2022/11/18 00:47:06;;;;;;;;;20.40;20.00;;;;;15.79;56.66;98026.50;4860641;29;8951;-77
2022/11/18 00:49:34;;;;;;;;;20.20;18.40;;;;;15.79;56.75;98024.72;4848680;29;9010;-77
2022/11/18 00:52:04;;;;;;;;;16.80;16.60;;;;;15.92;56.44;98030.28;4894607;29;8855;-77
2022/11/18 00:54:32;;;;;;;;;17.40;16.20;;;;;15.97;56.29;98030.03;4889293;29;9023;-79
2022/11/18 00:57:02;;;;;;;;;16.60;16.60;;;;;15.95;56.42;98029.28;4851826;29;9672;-77
2022/11/18 00:59:31;;;;;;;;;18.60;18.00;;;;;16.09;55.93;98023.38;4855726;29;8914;-81
2022/11/18 01:02:01;;;;;;;;;14.20;13.80;;;;;15.97;55.95;98025.66;4871245;29;8899;-76
2022/11/18 01:04:30;;;;;;;;;14.60;14.00;;;;;15.90;56.25;98029.50;4861806;29;8895;-78
2022/11/18 01:06:59;;;;;;;;;18.00;17.20;;;;;16.08;55.90;98019.88;4872221;29;8883;-78
2022/11/18 01:09:28;;;;;;;;;19.60;19.00;;;;;16.12;55.81;98017.97;4855394;29;8887;-79
2022/11/18 01:14:43;;;;;;;;;15.20;12.60;;;;;16.11;55.87;98017.13;4839299;29;8878;-78
2022/11/18 01:17:13;;;;;;;;;13.40;13.40;;;;;16.04;55.60;98014.84;4851141;29;8905;-77
2022/11/18 01:19:43;;;;;;;;;17.80;16.00;;;;;16.03;56.08;98015.75;4842875;29;8898;-77
2022/11/18 01:22:12;;;;;;;;;19.40;15.60;;;;;16.15;55.57;98025.72;4855502;29;8985;-77
2022/11/18 01:24:40;;;;;;;;;14.60;14.40;;;;;16.31;54.83;98023.19;4855435;29;8917;-77
2022/11/18 01:27:09;;;;;;;;;18.40;17.80;;;;;16.16;55.38;98017.75;4856010;29;8883;-77
2022/11/18 01:29:38;;;;;;;;;17.60;16.40;;;;;16.23;54.61;98020.94;4854227;29;8903;-77
2022/11/18 01:32:06;;;;;;;;;16.40;15.00;;;;;16.19;55.28;98022.00;4856703;29;8875;-79
2022/11/18 01:34:53;;;;;;;;;16.20;14.80;;;;;16.41;54.61;98019.19;4856039;29;8891;-78
2022/11/18 01:37:22;;;;;;;;;15.20;15.00;;;;;16.50;54.55;98008.22;4843655;29;8870;-77
2022/11/18 01:39:50;;;;;;;;;14.40;13.40;;;;;16.55;54.38;98007.97;4862360;29;8883;-76
2022/11/18 01:42:19;;;;;;;;;20.80;18.00;;;;;16.39;54.15;98000.00;4861681;29;8899;-79
2022/11/18 01:45:03;;;;;;;;;12.20;11.60;;;;;16.38;54.22;98008.81;4869949;29;8851;-77
2022/11/18 01:47:50;;;;;;;;;17.60;15.20;;;;;16.26;55.16;98005.00;4861104;29;8892;-76
2022/11/18 01:50:21;;;;;;;;;14.60;14.60;;;;;16.08;55.38;97996.22;4848888;29;8873;-78
2022/11/18 01:52:52;;;;;;;;;14.40;13.40;;;;;16.24;55.09;97993.72;4842761;29;8881;-76
2022/11/18 01:55:24;;;;;;;;;11.40;10.00;;;;;16.44;54.83;97991.88;4858326;29;8899;-76
2022/11/18 01:58:02;;;;;;;;;14.00;14.00;;;;;16.48;54.48;97990.78;4859890;29;8903;-77
2022/11/18 02:00:30;;;;;;;;;16.00;14.60;;;;;16.35;54.88;97991.41;4859640;29;8879;-79
2022/11/18 02:03:02;;;;;;;;;14.00;13.40;;;;;16.43;55.11;97993.66;4854009;29;8882;-76
2022/11/18 02:05:33;;;;;;;;;12.60;12.00;;;;;16.26;54.91;97978.69;4854658;29;8921;-76
2022/11/18 02:08:03;;;;;;;;;13.00;11.20;;;;;16.16;54.77;97974.81;4853644;29;8889;-77
2022/11/18 02:10:32;;;;;;;;;9.40;8.60;;;;;15.96;56.30;97981.03;4824488;29;8909;-76
2022/11/18 02:13:01;;;;;;;;;9.80;9.80;;;;;15.96;56.33;97973.16;4853080;29;8891;-77
2022/11/18 02:15:46;;;;;;;;;10.20;10.20;;;;;16.06;55.51;97968.28;4858625;29;9041;-77
2022/11/18 02:18:26;;;;;;;;;6.00;5.00;;;;;16.20;55.18;97955.34;4858485;29;8979;-78
2022/11/18 02:21:11;;;;;;;;;17.20;14.00;;;;;16.32;54.19;97948.63;4857244;29;8902;-77
2022/11/18 02:24:03;;;;;;;;;13.40;12.80;;;;;16.52;53.51;97948.47;4873401;29;8886;-77
2022/11/18 02:27:06;;;;;;;;;10.00;8.20;;;;;16.71;53.44;97956.28;4872789;29;8891;-76
2022/11/18 02:29:41;;;;;;;;;7.80;7.80;;;;;16.64;54.33;97952.25;4859021;29;8914;-77
2022/11/18 02:32:14;;;;;;;;;12.00;9.60;;;;;16.84;53.32;97947.78;4857927;29;9045;-79
2022/11/18 02:34:51;;;;;;;;;8.20;8.20;;;;;16.90;52.64;97956.22;4844858;29;8891;-78
2022/11/18 02:37:31;;;;;;;;;10.40;10.40;;;;;16.87;52.97;97947.63;4860353;29;8968;-78
2022/11/18 02:40:06;;;;;;;;;7.00;7.00;;;;;16.89;53.03;97953.66;4875284;29;8906;-77
2022/11/18 02:42:38;;;;;;;;;13.00;10.80;;;;;16.89;52.52;97943.13;4848814;29;8892;-77
2022/11/18 02:45:15;;;;;;;;;10.00;9.40;;;;;16.86;52.12;97951.19;4849440;29;8887;-78
2022/11/18 02:47:47;;;;;;;;;9.20;9.20;;;;;16.97;52.26;97942.72;4865315;29;9016;-79
2022/11/18 02:50:21;;;;;;;;;7.20;7.20;;;;;16.73;52.71;97949.16;4859333;29;8882;-78
2022/11/18 02:52:55;;;;;;;;;10.00;10.00;;;;;16.75;52.37;97936.75;4851430;29;8907;-78
2022/11/18 02:55:27;;;;;;;;;8.20;7.00;;;;;16.90;51.96;97932.53;4842230;29;8906;-75
2022/11/18 02:57:58;;;;;;;;;8.00;8.00;;;;;16.84;51.86;97927.59;4840457;29;9008;-78
2022/11/18 03:00:28;;;;;;;;;6.00;6.00;;;;;16.64;53.15;97928.56;4853446;29;8961;-78
2022/11/18 03:02:57;;;;;;;;;13.40;8.40;;;;;16.88;52.01;97930.88;4851858;29;8904;-78
2022/11/18 03:05:34;;;;;;;;;7.40;7.40;;;;;16.98;52.33;97921.59;4843407;29;8910;-77
2022/11/18 03:08:10;;;;;;;;;12.60;9.00;;;;;16.88;51.64;97921.22;4842422;29;8900;-79
2022/11/18 03:10:46;;;;;;;;;7.60;7.60;;;;;16.85;51.82;97917.91;4838762;29;8874;-77
2022/11/18 03:13:23;;;;;;;;;8.00;8.00;;;;;16.75;52.44;97917.50;4842827;29;8946;-75
2022/11/18 03:16:02;;;;;;;;;9.40;8.00;;;;;16.80;52.29;97911.97;4856836;29;8883;-75
2022/11/18 03:18:39;;;;;;;;;10.40;10.40;;;;;16.75;52.27;97917.50;4855911;29;8883;-76
2022/11/18 03:21:12;;;;;;;;;11.60;9.00;;;;;16.55;52.08;97908.81;4855533;29;8882;-77
2022/11/18 03:23:45;;;;;;;;;8.60;8.00;;;;;16.52;52.35;97908.13;4856975;29;9668;-76
2022/11/18 03:26:20;;;;;;;;;11.00;9.00;;;;;16.62;52.14;97900.63;4856649;29;8990;-78
2022/11/18 03:28:56;;;;;;;;;7.40;7.00;;;;;16.49;52.37;97896.00;4873770;29;8883;-79
2022/11/18 03:31:33;;;;;;;;;7.80;7.60;;;;;16.28;52.51;97894.47;4859952;29;8863;-77
2022/11/18 03:34:06;;;;;;;;;11.40;9.80;;;;;16.19;53.00;97882.63;4868638;29;8895;-76
2022/11/18 03:36:40;;;;;;;;;7.20;7.00;;;;;16.09;52.95;97884.84;4878370;29;8887;-77
2022/11/18 03:39:13;;;;;;;;;6.60;5.60;;;;;16.43;52.20;97890.22;4847451;29;9004;-75
2022/11/18 03:41:49;;;;;;;;;6.00;6.00;;;;;16.59;51.83;97883.22;4838929;29;8882;-76
2022/11/18 03:44:23;;;;;;;;;5.60;5.60;;;;;16.44;51.21;97884.84;4853583;29;8941;-77
2022/11/18 03:46:59;;;;;;;;;8.00;7.40;;;;;16.52;51.27;97893.22;4855979;29;8863;-78
2022/11/18 03:49:33;;;;;;;;;8.60;8.60;;;;;16.67;51.84;97906.50;4857187;29;8894;-77
2022/11/18 03:52:10;;;;;;;;;8.00;7.40;;;;;16.86;51.38;97901.16;4871559;29;8864;-76
2022/11/18 03:54:40;;;;;;;;;7.40;7.40;;;;;16.85;50.51;97897.69;4871045;29;8887;-79
2022/11/18 03:57:15;;;;;;;;;10.20;9.40;;;;;16.88;50.72;97892.25;4855555;29;8888;-77
2022/11/18 03:59:48;;;;;;;;;8.00;8.00;;;;;16.86;50.11;97893.25;4837122;29;8878;-78
2022/11/18 04:02:21;;;;;;;;;9.00;9.00;;;;;16.74;50.10;97900.00;4851292;29;8897;-80
2022/11/18 04:04:53;;;;;;;;;9.20;8.00;;;;;16.80;50.11;97894.41;4851069;29;8916;-77
2022/11/18 04:07:29;;;;;;;;;9.40;8.40;;;;;16.81;51.04;97890.00;4850807;29;8875;-77
2022/11/18 04:10:04;;;;;;;;;10.80;7.20;;;;;16.79;50.27;97889.22;4872063;29;8880;-77
2022/11/18 04:12:39;;;;;;;;;8.00;8.00;;;;;16.57;50.65;97885.91;4884157;29;9627;-79
2022/11/18 04:15:08;;;;;;;;;15.80;12.60;;;;;16.71;50.27;97879.94;4843494;29;8912;-76
2022/11/18 04:17:41;;;;;;;;;11.20;11.20;;;;;16.80;49.40;97875.97;4853142;29;8893;-74
2022/11/18 04:20:15;;;;;;;;;8.20;8.20;;;;;16.82;49.66;97875.88;4852756;29;8905;-79
2022/11/18 04:22:44;;;;;;;;;9.40;9.00;;;;;16.44;50.33;97878.75;4842276;29;8890;-78
2022/11/18 04:25:13;;;;;;;;;8.80;8.80;;;;;16.62;50.38;97863.78;4839420;29;8909;-78
2022/11/18 04:27:41;;;;;;;;;10.60;8.40;;;;;16.62;49.71;97864.63;4841385;29;8953;-77
2022/11/18 04:30:11;;;;;;;;;10.80;10.80;;;;;16.76;49.88;97871.78;4872548;29;8945;-78
2022/11/18 04:32:42;;;;;;;;;7.80;7.60;;;;;16.69;50.33;97867.78;4855331;29;9025;-76
2022/11/18 04:35:10;;;;;;;;;7.20;7.20;;;;;16.76;49.48;97861.28;4871800;29;9688;-76
2022/11/18 04:37:39;;;;;;;;;9.40;7.60;;;;;16.86;50.42;97862.53;4856631;29;8897;-79
2022/11/18 04:40:09;;;;;;;;;9.40;8.20;;;;;16.98;48.59;97858.38;4869957;29;8899;-79
2022/11/18 04:42:38;;;;;;;;;11.20;10.80;;;;;16.84;48.93;97856.50;4856351;29;8846;-78
2022/11/18 04:45:08;;;;;;;;;7.00;6.60;;;;;16.85;48.82;97865.25;4871837;29;8960;-78
2022/11/18 04:47:37;;;;;;;;;8.20;8.20;;;;;17.00;48.07;97866.22;4855756;29;8865;-77
2022/11/18 04:50:08;;;;;;;;;10.20;8.20;;;;;16.81;48.33;97864.53;4857020;29;8905;-77
2022/11/18 04:52:37;;;;;;;;;7.60;6.00;;;;;16.85;49.49;97871.34;4856005;29;8874;-76
2022/11/18 04:55:06;;;;;;;;;9.20;7.40;;;;;16.87;49.60;97880.00;4871860;29;8885;-77
2022/11/18 04:57:34;;;;;;;;;6.80;6.80;;;;;16.75;49.32;97888.53;4841631;29;8869;-78
2022/11/18 05:00:04;;;;;;;;;11.20;11.00;;;;;17.13;49.46;97894.44;4871818;29;8897;-78
2022/11/18 05:02:33;;;;;;;;;12.00;9.00;;;;;17.18;49.35;97882.78;4859797;29;8866;-77
2022/11/18 05:05:02;;;;;;;;;11.20;11.20;;;;;17.30;48.65;97887.41;4871828;29;8861;-78
2022/11/18 05:07:32;;;;;;;;;8.20;8.20;;;;;17.13;49.20;97888.31;4853089;29;8886;-79
2022/11/18 05:10:00;;;;;;;;;13.20;10.40;;;;;17.06;49.53;97892.22;4871805;29;8917;-78
2022/11/18 05:15:15;;;;;;;;;12.40;10.60;;;;;16.95;49.18;97883.06;4860874;29;8891;-78
2022/11/18 05:17:44;;;;;;;;;15.40;14.60;;;;;16.84;48.78;97874.06;4861688;29;8898;-78
2022/11/18 05:20:13;;;;;;;;;12.80;10.80;;;;;16.92;48.86;97867.47;4862002;29;8875;-79
2022/11/18 05:22:43;;;;;;;;;8.80;8.20;;;;;16.79;49.99;97861.13;4880713;29;8879;-80
2022/11/18 05:25:13;;;;;;;;;10.80;9.20;;;;;16.88;48.97;97854.53;4876909;29;8878;-78
2022/11/18 05:27:41;;;;;;;;;7.80;7.80;;;;;16.66;49.27;97855.66;4870677;29;8887;-80
2022/11/18 05:30:11;;;;;;;;;8.40;8.40;;;;;16.63;49.35;97858.44;4858945;29;8906;-80
2022/11/18 05:32:40;;;;;;;;;7.40;6.80;;;;;16.77;49.48;97855.09;4859537;29;8938;-78
2022/11/18 05:35:09;;;;;;;;;8.20;8.20;;;;;16.97;48.92;97859.31;4854396;29;8988;-78
2022/11/18 05:37:38;;;;;;;;;9.00;8.20;;;;;17.03;48.46;97858.13;4855121;29;8965;-78
2022/11/18 05:40:09;;;;;;;;;12.80;11.80;;;;;17.05;47.49;97859.75;4839526;29;9051;-77
2022/11/18 05:45:24;;;;;;;;;9.80;9.80;;;;;17.10;48.38;97859.50;4858624;29;8937;-78
2022/11/18 05:48:03;;;;;;;;;15.00;13.20;;;;;17.24;48.04;97850.84;4859614;29;8879;-77
2022/11/18 05:50:33;;;;;;;;;9.20;9.20;;;;;17.03;48.36;97858.13;4843074;29;8911;-77
2022/11/18 05:53:02;;;;;;;;;7.60;7.20;;;;;16.91;48.96;97859.63;4857442;29;8901;-80
2022/11/18 05:55:39;;;;;;;;;9.80;9.80;;;;;16.91;48.48;97855.22;4859353;29;8887;-79
2022/11/18 05:58:08;;;;;;;;;12.60;11.60;;;;;17.08;47.64;97849.03;4875377;29;8917;-78
2022/11/18 06:00:37;;;;;;;;;10.40;10.00;;;;;17.11;47.47;97842.78;4854748;29;8947;-79
2022/11/18 06:03:12;;;;;;;;;16.20;15.00;;;;;17.14;47.33;97834.69;4865437;29;8905;-79
2022/11/18 06:05:40;;;;;;;;;9.20;8.20;;;;;16.91;48.61;97828.03;4868685;29;8879;-77
2022/11/18 06:08:11;;;;;;;;;9.60;9.20;;;;;16.99;48.82;97823.19;4857841;29;8891;-77
2022/11/18 06:10:45;;;;;;;;;11.00;9.80;;;;;17.15;48.15;97833.75;4871054;29;8891;-79
2022/11/18 06:13:20;;;;;;;;;11.60;9.00;;;;;17.46;47.44;97825.00;4859331;29;8942;-79
2022/11/18 06:15:49;;;;;;;;;12.20;11.00;;;;;17.47;46.63;97820.59;4844281;29;8875;-79
2022/11/18 06:18:22;;;;;;;;;12.20;12.20;;;;;17.40;46.36;97813.97;4868064;29;8891;-79
2022/11/18 06:20:54;;;;;;;;;14.40;14.40;;;;;17.67;45.64;97820.28;4872962;29;8891;-81
2022/11/18 06:23:23;;;;;;;;;18.80;18.80;;;;;17.60;46.17;97821.59;4862575;29;8882;-79
2022/11/18 06:25:53;;;;;;;;;20.00;20.00;;;;;17.88;46.49;97812.09;4860082;29;8958;-78
2022/11/18 06:28:23;;;;;;;;;26.20;25.40;;;;;18.09;46.09;97817.91;4882181;29;8908;-79
2022/11/18 06:30:52;;;;;;;;;32.80;29.40;;;;;18.24;45.85;97809.13;4865420;29;8925;-79
2022/11/18 06:33:21;;;;;;;;;42.00;35.25;;;;;18.39;45.85;97809.13;4859039;29;8947;-80
2022/11/18 06:35:49;;;;;;;;;21.40;17.80;;;;;18.52;45.58;97802.16;4858401;29;9596;-78
2022/11/18 06:38:18;;;;;;;;;23.60;23.40;;;;;18.62;45.35;97799.78;4840664;29;8873;-80
2022/11/18 06:40:46;;;;;;;;;27.60;25.20;;;;;18.74;45.24;97790.28;4855306;29;9679;-79
2022/11/18 06:48:50;;;;;;;;;49.50;40.75;;;;;19.13;44.22;97767.59;4859335;29;8883;-80
2022/11/18 06:51:19;;;;;;;;;66.75;52.50;;;;;19.21;44.48;97765.34;4861038;29;8921;-80
2022/11/18 06:53:48;;;;;;;;;59.25;46.50;;;;;19.29;44.21;97771.78;4873357;29;8866;-82
2022/11/18 06:56:18;;;;;;;;;58.25;47.00;;;;;19.39;45.22;97772.03;4873391;29;8910;-78
2022/11/18 06:58:53;;;;;;;;;48.75;41.75;;;;;19.61;44.15;97763.56;4874059;29;9626;-81
2022/11/18 07:01:23;;;;;;;;;37.00;33.50;;;;;19.54;43.79;97766.72;4872660;29;8902;-77
2022/11/18 07:03:52;;;;;;;;;26.80;26.60;;;;;19.62;43.21;97769.69;4854612;29;8867;-80
2022/11/18 07:06:23;;;;;;;;;38.00;34.00;;;;;19.67;42.75;97775.53;4850020;29;9081;-82
2022/11/18 07:08:52;;;;;;;;;50.50;41.75;;;;;19.62;42.93;97785.56;4909952;29;8863;-80
2022/11/18 07:11:23;;;;;;;;;50.75;41.75;;;;;19.63;43.77;97785.47;4868287;29;8997;-80
2022/11/18 07:13:53;;;;;;;;;47.00;39.75;;;;;19.63;44.04;97777.53;4893129;29;8892;-79
2022/11/18 07:16:24;;;;;;;;;46.00;38.00;;;;;19.76;45.31;97772.31;4879509;29;8900;-77
2022/11/18 07:18:54;;;;;;;;;35.00;31.80;;;;;19.88;45.63;97781.22;4876886;29;8875;-80
2022/11/18 07:21:24;;;;;;;;;21.80;21.00;;;;;20.00;44.96;97790.13;4910888;29;8861;-81
2022/11/18 07:23:54;;;;;;;;;24.40;22.20;;;;;20.04;43.19;97789.00;4878729;29;8987;-84
2022/11/18 07:26:22;;;;;;;;;26.60;26.60;;;;;20.05;43.30;97788.03;4899804;29;8903;-82
2022/11/18 07:28:54;;;;;;;;;33.00;30.20;;;;;19.94;42.86;97791.38;4879312;29;8991;-81
2022/11/18 07:31:22;;;;;;;;;23.40;23.20;;;;;19.80;43.19;97797.59;4914603;29;8855;-78
2022/11/18 07:33:53;;;;;;;;;30.80;26.60;;;;;19.87;43.38;97800.69;4900900;29;8869;-80
2022/11/18 07:36:23;;;;;;;;;29.40;28.60;;;;;19.86;43.94;97794.53;4894994;29;9023;-81
2022/11/18 07:38:53;;;;;;;;;32.80;30.20;;;;;19.88;43.21;97788.31;4912304;29;8860;-80
2022/11/18 07:41:23;;;;;;;;;30.60;29.60;;;;;19.94;43.95;97788.75;4887721;29;8863;-79
2022/11/18 07:43:55;;;;;;;;;30.40;29.00;;;;;20.08;43.46;97784.34;4902074;29;8894;-79
2022/11/18 07:46:30;;;;;;;;;34.25;32.25;;;;;20.15;44.07;97786.47;4893582;29;9008;-80
2022/11/18 07:49:02;;;;;;;;;36.50;33.25;;;;;20.18;44.50;97777.47;4914449;29;9012;-81
2022/11/18 07:51:33;;;;;;;;;39.50;34.00;;;;;20.28;44.48;97773.22;4896822;29;8978;-80
2022/11/18 07:54:06;;;;;;;;;30.00;27.40;;;;;20.38;44.85;97770.81;4868375;29;8861;-81
2022/11/18 07:56:35;;;;;;;;;37.00;31.75;;;;;20.39;43.83;97765.38;4895022;29;8885;-82
2022/11/18 07:59:06;;;;;;;;;37.60;31.20;;;;;20.45;44.53;97769.41;4894997;29;8893;-81
2022/11/18 08:01:35;;;;;;;;;35.50;33.50;;;;;20.44;44.23;97770.38;4910569;29;10088;-80
2022/11/18 08:04:05;;;;;;;;;35.75;32.50;;;;;20.41;43.32;97779.34;4894244;29;8849;-82
2022/11/18 08:06:34;;;;;;;;;44.75;36.00;;;;;20.43;43.66;97776.59;4910000;29;8865;-80
2022/11/18 08:09:04;;;;;;;;;40.50;34.00;;;;;20.44;43.93;97770.38;4894693;29;8893;-79
2022/11/18 08:11:33;;;;;;;;;41.50;35.50;;;;;20.44;44.57;97759.78;4889652;29;8873;-79
2022/11/18 08:14:03;;;;;;;;;44.00;37.50;;;;;20.43;44.25;97751.00;4855159;29;8873;-80
2022/11/18 08:16:32;;;;;;;;;47.25;39.25;;;;;20.45;44.39;97743.78;4868662;29;8863;-80
2022/11/18 08:19:02;;;;;;;;;43.00;36.75;;;;;20.45;44.65;97737.63;4866607;29;8914;-80
2022/11/18 08:21:30;;;;;;;;;39.25;33.25;;;;;20.43;44.54;97742.19;4849570;29;9632;-83
2022/11/18 08:23:59;;;;;;;;;45.75;39.00;;;;;20.40;44.51;97730.03;4863259;29;8903;-80
2022/11/18 08:26:28;;;;;;;;;41.00;36.00;;;;;20.38;43.67;97737.22;4840789;29;8998;-79
2022/11/18 08:28:57;;;;;;;;;42.25;36.25;;;;;20.38;43.82;97742.53;4823086;29;8997;-81
2022/11/18 08:31:29;;;;;;;;;40.25;34.50;;;;;20.39;43.07;97748.66;4852331;29;9024;-82
2022/11/18 08:34:01;;;;;;;;;47.50;40.50;;;;;20.28;43.12;97746.75;4873897;29;8900;-82
2022/11/18 08:36:32;;;;;;;;;40.50;36.25;;;;;20.19;43.83;97748.25;4857949;29;8974;-81
2022/11/18 08:39:02;;;;;;;;;48.75;41.00;;;;;20.23;44.30;97744.44;4861067;29;8902;-80
2022/11/18 08:41:33;;;;;;;;;47.50;40.00;;;;;20.32;44.98;97753.56;4888566;29;8903;-80
2022/11/18 08:44:04;;;;;;;;;21.25;18.50;;;;;20.35;45.12;97747.19;4870006;29;8891;-80
2022/11/18 08:46:32;;;;;;;;;47.00;39.00;;;;;20.43;44.70;97751.00;4856961;29;9006;-80
2022/11/18 08:49:02;;;;;;;;;46.75;38.50;;;;;20.48;43.87;97747.19;4841596;29;8910;-80
2022/11/18 08:51:31;;;;;;;;;43.50;36.50;;;;;20.51;43.73;97753.13;4847579;29;9001;-79
2022/11/18 08:54:01;;;;;;;;;59.50;48.75;;;;;20.54;43.62;97755.53;4845044;29;8891;-78
2022/11/18 08:56:29;;;;;;;;;54.00;44.25;;;;;20.55;44.70;97759.88;4859685;29;9001;-79
2022/11/18 08:58:58;;;;;;;;;53.75;45.00;;;;;20.55;44.34;97765.19;4853913;29;8913;-80
2022/11/18 09:01:26;;;;;;;;;61.50;47.25;;;;;20.46;44.89;97773.75;4854830;29;8899;-82
2022/11/18 09:03:56;;;;;;;;;61.75;48.75;;;;;20.41;45.35;97770.56;4851923;29;8899;-79
2022/11/18 09:06:26;;;;;;;;;70.25;53.00;;;;;20.43;45.77;97768.66;4842979;29;8893;-79
2022/11/18 09:08:55;;;;;;;;;71.00;57.00;;;;;20.39;46.25;97777.78;4845164;29;8887;-79
2022/11/18 09:11:28;;;;;;;;;76.00;65.75;;;;;20.36;47.04;97770.03;4834518;29;9481;-81
2022/11/18 09:13:58;;;;;;;;;73.00;63.75;;;;;20.35;47.01;97771.00;4835899;29;9715;-82
2022/11/18 09:16:47;;;;;;;;;78.25;67.50;;;;;20.31;46.85;97762.44;4840969;29;9843;-79
2022/11/18 09:19:17;;;;;;;;;75.00;64.25;;;;;20.24;47.04;97762.03;4844722;29;10214;-80
2022/11/18 09:22:08;;;;;;;;;75.50;63.00;;;;;20.20;47.90;97767.63;4855863;29;10726;-79
2022/11/18 09:24:37;;;;;;;;;79.50;71.75;;;;;19.85;47.42;97769.06;4835860;29;10532;-80
2022/11/18 09:27:07;;;;;;;;;79.50;70.25;;;;;19.54;48.72;97778.13;4856266;29;10308;-80
2022/11/18 09:29:43;;;;;;;;;80.25;70.50;;;;;18.78;50.30;97776.78;4841382;29;10253;-79
2022/11/18 09:32:12;;;;;;;;;79.25;67.75;;;;;19.09;49.83;97770.44;4852581;29;10157;-78
2022/11/18 09:34:41;;;;;;;;;73.33;60.67;;;;;19.26;49.25;97771.16;4857865;29;9711;-79
2022/11/18 09:37:11;;;;;;;;;77.00;66.25;;;;;19.39;50.51;97769.41;4857473;29;9381;-79
2022/11/18 09:39:40;;;;;;;;;79.25;70.25;;;;;19.51;50.45;97767.78;4866197;29;9851;-80
2022/11/18 09:42:33;;;;;;;;;79.25;70.75;;;;;19.79;49.71;97744.78;4837890;29;10302;-82
2022/11/18 09:45:13;;;;;;;;;81.00;70.25;;;;;19.72;49.89;97731.16;4836520;29;10848;-80
2022/11/18 09:47:48;;;;;;;;;79.75;70.25;;;;;19.64;49.97;97714.91;4861577;29;10151;-78
2022/11/18 09:50:19;;;;;;;;;79.50;73.50;;;;;19.51;50.14;97717.53;4844708;29;10301;-81
2022/11/18 09:53:19;;;;;;;;;81.50;74.00;;;;;19.69;49.67;97723.38;4866651;29;10390;-79
2022/11/18 09:55:48;;;;;;;;;83.50;78.75;;;;;19.63;50.60;97718.50;4861742;29;10580;-79
2022/11/18 09:58:22;;;;;;;;;79.50;67.75;;;;;19.64;50.21;97709.63;4851197;29;10652;-79
2022/11/18 10:00:51;;;;;;;;;84.50;76.75;;;;;19.60;49.99;97703.72;4861409;29;10336;-79
2022/11/18 10:03:27;;;;;;;;;81.00;71.50;;;;;19.66;50.58;97694.53;4862608;29;10408;-78
2022/11/18 10:06:01;;;;;;;;;82.25;74.00;;;;;19.56;50.99;97688.97;4871378;29;10417;-77
2022/11/18 10:08:36;;;;;;;;;85.00;74.75;;;;;19.51;50.72;97682.31;4875800;29;10366;-81
2022/11/18 10:11:13;;;;;;;;;83.50;78.25;;;;;19.47;51.02;97676.41;4856863;29;10283;-79
2022/11/18 10:13:54;;;;;;;;;81.50;66.50;;;;;19.39;50.97;97663.66;4856844;29;10327;-80
2022/11/18 10:16:40;;;;;;;;;79.50;69.75;;;;;19.28;51.27;97666.19;4861528;29;10194;-77
2022/11/18 10:19:22;;;;;;;;;73.33;59.00;;;;;19.18;51.06;97647.44;4832726;29;9674;-77
2022/11/18 10:22:04;;;;;;;;;70.75;57.50;;;;;19.09;51.54;97638.34;4854087;29;9313;-77
2022/11/18 10:24:50;;;;;;;;;59.50;47.25;;;;;18.88;52.19;97629.19;4856997;29;8879;-76
2022/11/18 10:27:19;;;;;;;;;55.25;43.25;;;;;18.66;52.41;97622.63;4858782;29;8911;-76
2022/11/18 10:29:53;;;;;;;;;49.00;41.25;;;;;18.72;52.01;97617.91;4860945;29;9732;-78
2022/11/18 10:32:22;;;;;;;;;53.50;44.50;;;;;18.71;52.34;97614.41;4875071;29;8903;-77
2022/11/18 10:34:53;;;;;;;;;44.25;37.50;;;;;18.61;52.41;97600.09;4869044;29;8863;-78
2022/11/18 10:37:26;;;;;;;;;47.00;37.50;;;;;18.43;52.99;97600.34;4854434;29;9029;-77
2022/11/18 10:40:26;;;;;;;;;56.75;46.75;;;;;18.36;52.80;97590.28;4841127;29;8893;-78
2022/11/18 10:42:56;;;;;;;;;65.75;51.75;;;;;18.06;53.85;97568.38;4868879;29;9172;-77
2022/11/18 10:45:27;;;;;;;;;63.50;50.00;;;;;18.04;54.15;97561.50;4843437;29;8887;-75
2022/11/18 10:48:08;;;;;;;;;58.50;48.50;;;;;18.19;54.36;97551.78;4856750;29;8891;-76
2022/11/18 10:50:39;;;;;;;;;72.00;57.25;;;;;18.15;54.90;97555.53;4837611;29;8893;-78
2022/11/18 10:53:30;;;;;;;;;76.00;60.25;;;;;18.21;54.22;97560.44;4889994;29;8879;-78
2022/11/18 10:56:02;;;;;;;;;68.67;55.00;;;;;18.04;55.39;97564.16;4889881;29;10468;-76
2022/11/18 10:58:32;;;;;;;;;72.67;57.67;;;;;18.21;54.13;97566.56;4894734;29;10653;-78
2022/11/18 11:01:06;;;;;;;;;69.00;56.00;;;;;17.96;54.54;97566.41;4895990;29;9466;-78
2022/11/18 11:03:37;;;;;;;;;60.25;50.25;;;;;18.07;54.88;97562.16;4891993;29;9122;-80
2022/11/18 11:06:37;;;;;;;;;58.50;46.00;;;;;18.18;53.80;97558.81;4881185;29;9611;-77
2022/11/18 11:09:09;;;;;;;;;56.00;45.50;;;;;18.16;53.32;97557.25;4874074;29;8884;-76
2022/11/18 11:11:42;;;;;;;;;56.50;46.00;;;;;18.09;54.59;97560.28;4874203;29;8947;-77
2022/11/18 11:14:19;;;;;;;;;50.50;41.00;;;;;18.11;54.55;97550.47;4861732;29;9033;-77
2022/11/18 11:16:58;;;;;;;;;54.25;44.00;;;;;18.08;53.47;97555.09;4893957;29;9644;-76
2022/11/18 11:19:35;;;;;;;;;56.50;46.00;;;;;17.89;54.52;97556.22;4892366;29;8914;-77
2022/11/18 11:22:08;;;;;;;;;47.00;39.00;;;;;17.98;53.87;97567.16;4876540;29;8870;-77
2022/11/18 11:24:37;;;;;;;;;50.00;41.75;;;;;18.03;53.89;97555.34;4876446;29;9032;-77
2022/11/18 11:27:32;;;;;;;;;53.25;44.00;;;;;18.28;53.89;97538.00;4873654;29;8885;-78
2022/11/18 11:30:22;;;;;;;;;47.00;39.50;;;;;18.25;53.41;97532.91;4853968;29;8882;-77
2022/11/18 11:33:14;;;;;;;;;45.75;40.50;;;;;18.36;52.74;97530.44;4846870;29;9680;-76
2022/11/18 11:35:51;;;;;;;;;42.75;35.50;;;;;18.16;53.09;97518.50;4853440;29;8980;-77
2022/11/18 11:38:35;;;;;;;;;42.50;37.00;;;;;18.22;53.27;97518.13;4870826;29;9002;-78
2022/11/18 11:41:13;;;;;;;;;51.00;41.25;;;;;18.05;53.31;97513.06;4843543;29;8891;-78
2022/11/18 11:43:58;;;;;;;;;44.00;36.75;;;;;18.05;53.40;97505.16;4855532;29;8867;-76
2022/11/18 11:46:42;;;;;;;;;41.75;36.75;;;;;18.14;53.11;97509.00;4844835;29;8914;-78
2022/11/18 11:49:18;;;;;;;;;33.00;30.75;;;;;18.04;52.80;97504.31;4840900;29;8966;-78
2022/11/18 11:51:53;;;;;;;;;46.50;39.25;;;;;17.98;53.43;97494.16;4856550;29;8876;-79
2022/11/18 11:54:45;;;;;;;;;45.25;38.00;;;;;17.37;55.04;97498.78;4847607;29;8879;-78
2022/11/18 11:57:23;;;;;;;;;49.50;41.00;;;;;17.63;55.09;97491.91;4862352;29;9017;-79
2022/11/18 12:00:03;;;;;;;;;46.75;38.25;;;;;17.60;55.15;97484.22;4855567;29;8897;-79
2022/11/18 12:02:53;;;;;;;;;46.00;38.50;;;;;17.79;54.88;97481.28;4867917;29;8901;-81
2022/11/18 12:05:29;;;;;;;;;45.75;39.00;;;;;17.87;54.26;97478.19;4851267;29;8914;-77
2022/11/18 12:08:01;;;;;;;;;39.50;36.00;;;;;17.86;54.15;97477.34;4851497;29;8883;-76
2022/11/18 12:10:44;;;;;;;;;47.50;39.25;;;;;18.08;53.68;97481.22;4853631;29;8875;-78
2022/11/18 12:13:32;;;;;;;;;40.25;35.25;;;;;18.23;53.51;97466.22;4847956;29;8899;-76
2022/11/18 12:16:21;;;;;;;;;34.75;31.25;;;;;18.34;52.76;97455.78;4851152;29;8894;-79